首页
METAR-TAF:

METAR-TAF

机场 :

乌里扬诺夫斯克, 俄罗斯

纬度: 54-21N, 经度: 048-23E, 海拔: 77米

当前天气观测

该预报发布于21分钟前的15:00 UTC
风速8节,风向西北
温度 25°C
湿度 41%
气压 1010 hPa
能見度: 8000
少量云层高于4000英尺

METAR: UWLW 171500Z 31004MPS 8000 FEW040 25/11 Q1010 R20/CLRD60 NOSIG RMK QFE752

时间: 18:21 (15:21 UTC)

预报

该预报发布于1小时和36分钟前的13:45 UTC
预报有效从17日的 15点(UTC)到 18日的 15点(UTC)
风速6节,风向西
能見度: 8000
散云层高于3300英尺
短暂存在
从 17日的 15点(UTC)到 17日的 18点(UTC)
风速12节,风向西北
短暂存在
从 18日的 06点(UTC)到 18日的 15点(UTC)
风速10节,风向西北,有时为19节阵风

TAF: UWLW 171345Z 1715/1815 28003MPS 8000 SCT033 TEMPO 1715/1718 31006MPS TEMPO 1806/1815 32005G10MPS

超过4000个机场的气象观测和天气预报(METAR&TAF报告)。

可查询的气象台以黄色和红色小点在地图上表示。

将鼠标移到小点上方,可查看气象台名称。

然后点击查看天气观测和预报。

如需切换地图:点击带黑十字的绿色按钮放大地图;点击带横线的绿色按钮缩小地图;或者点击绿色箭头查看邻近地区的地图。


METAR-TAF: